sensor_id;sensor_type;location;lat;lon;timestamp;P1;durP1;ratioP1;P2;durP2;ratioP2
15818;SDS011;8010;53.986;12.106;2023-11-21T00:01:31;6.23;;;3.70;;
15818;SDS011;8010;53.986;12.106;2023-11-21T00:03:57;5.07;;;3.67;;
15818;SDS011;8010;53.986;12.106;2023-11-21T00:06:23;8.27;;;3.73;;
15818;SDS011;8010;53.986;12.106;2023-11-21T00:08:48;5.10;;;3.43;;
15818;SDS011;8010;53.986;12.106;2023-11-21T00:11:14;6.13;;;3.43;;
15818;SDS011;8010;53.986;12.106;2023-11-21T00:13:39;5.50;;;3.00;;
15818;SDS011;8010;53.986;12.106;2023-11-21T00:16:05;4.53;;;3.37;;
15818;SDS011;8010;53.986;12.106;2023-11-21T00:18:32;5.33;;;3.17;;
15818;SDS011;8010;53.986;12.106;2023-11-21T00:20:57;5.60;;;3.50;;
15818;SDS011;8010;53.986;12.106;2023-11-21T00:23:24;6.40;;;3.30;;
15818;SDS011;8010;53.986;12.106;2023-11-21T00:25:49;4.33;;;3.50;;
15818;SDS011;8010;53.986;12.106;2023-11-21T00:28:15;6.13;;;3.33;;
15818;SDS011;8010;53.986;12.106;2023-11-21T00:30:41;4.03;;;3.00;;
15818;SDS011;8010;53.986;12.106;2023-11-21T00:33:06;6.20;;;3.77;;
15818;SDS011;8010;53.986;12.106;2023-11-21T00:35:32;4.60;;;3.37;;
15818;SDS011;8010;53.986;12.106;2023-11-21T00:37:57;4.00;;;2.90;;
15818;SDS011;8010;53.986;12.106;2023-11-21T00:40:23;4.77;;;3.37;;
15818;SDS011;8010;53.986;12.106;2023-11-21T00:42:49;4.87;;;3.47;;
15818;SDS011;8010;53.986;12.106;2023-11-21T00:45:15;5.13;;;3.47;;
15818;SDS011;8010;53.986;12.106;2023-11-21T00:47:41;3.87;;;3.27;;
15818;SDS011;8010;53.986;12.106;2023-11-21T00:50:07;6.30;;;3.20;;
15818;SDS011;8010;53.986;12.106;2023-11-21T00:52:34;5.23;;;3.60;;
15818;SDS011;8010;53.986;12.106;2023-11-21T00:55:00;4.77;;;3.50;;
15818;SDS011;8010;53.986;12.106;2023-11-21T00:57:27;5.03;;;3.50;;
15818;SDS011;8010;53.986;12.106;2023-11-21T00:59:53;4.47;;;3.70;;
15818;SDS011;8010;53.986;12.106;2023-11-21T01:02:19;5.67;;;4.20;;
15818;SDS011;8010;53.986;12.106;2023-11-21T01:04:45;7.20;;;4.50;;
15818;SDS011;8010;53.986;12.106;2023-11-21T01:07:10;6.33;;;3.80;;
15818;SDS011;8010;53.986;12.106;2023-11-21T01:09:36;6.03;;;3.90;;
15818;SDS011;8010;53.986;12.106;2023-11-21T01:12:01;4.63;;;3.70;;
15818;SDS011;8010;53.986;12.106;2023-11-21T01:14:27;4.50;;;3.50;;
15818;SDS011;8010;53.986;12.106;2023-11-21T01:16:53;5.60;;;4.30;;
15818;SDS011;8010;53.986;12.106;2023-11-21T01:19:18;6.40;;;4.03;;
15818;SDS011;8010;53.986;12.106;2023-11-21T01:21:44;4.70;;;3.97;;
15818;SDS011;8010;53.986;12.106;2023-11-21T01:24:09;6.23;;;4.47;;
15818;SDS011;8010;53.986;12.106;2023-11-21T01:26:35;5.47;;;4.13;;
15818;SDS011;8010;53.986;12.106;2023-11-21T01:29:00;6.20;;;4.77;;
15818;SDS011;8010;53.986;12.106;2023-11-21T01:31:26;5.50;;;4.27;;
15818;SDS011;8010;53.986;12.106;2023-11-21T01:33:54;8.00;;;4.27;;
15818;SDS011;8010;53.986;12.106;2023-11-21T01:36:20;10.80;;;4.50;;
15818;SDS011;8010;53.986;12.106;2023-11-21T01:38:46;7.07;;;4.33;;
15818;SDS011;8010;53.986;12.106;2023-11-21T01:41:13;7.43;;;3.90;;
15818;SDS011;8010;53.986;12.106;2023-11-21T01:43:39;6.47;;;4.30;;
15818;SDS011;8010;53.986;12.106;2023-11-21T01:46:05;6.07;;;4.13;;
15818;SDS011;8010;53.986;12.106;2023-11-21T01:48:31;6.60;;;4.30;;
15818;SDS011;8010;53.986;12.106;2023-11-21T01:50:57;6.90;;;4.17;;
15818;SDS011;8010;53.986;12.106;2023-11-21T01:53:24;8.43;;;4.20;;
15818;SDS011;8010;53.986;12.106;2023-11-21T01:55:51;6.13;;;4.17;;
15818;SDS011;8010;53.986;12.106;2023-11-21T01:58:18;6.47;;;4.23;;
15818;SDS011;8010;53.986;12.106;2023-11-21T02:00:44;7.50;;;4.03;;
15818;SDS011;8010;53.986;12.106;2023-11-21T02:03:10;4.83;;;3.60;;
15818;SDS011;8010;53.986;12.106;2023-11-21T02:05:35;6.43;;;3.83;;
15818;SDS011;8010;53.986;12.106;2023-11-21T02:08:02;5.27;;;3.77;;
15818;SDS011;8010;53.986;12.106;2023-11-21T02:10:30;5.63;;;3.93;;
15818;SDS011;8010;53.986;12.106;2023-11-21T02:12:56;5.17;;;4.23;;
15818;SDS011;8010;53.986;12.106;2023-11-21T02:15:21;5.43;;;3.67;;
15818;SDS011;8010;53.986;12.106;2023-11-21T02:17:51;5.03;;;3.73;;
15818;SDS011;8010;53.986;12.106;2023-11-21T02:20:18;6.13;;;4.37;;
15818;SDS011;8010;53.986;12.106;2023-11-21T02:22:51;4.93;;;3.90;;
15818;SDS011;8010;53.986;12.106;2023-11-21T02:25:28;6.77;;;4.60;;
15818;SDS011;8010;53.986;12.106;2023-11-21T02:27:58;5.17;;;3.70;;
15818;SDS011;8010;53.986;12.106;2023-11-21T02:30:25;5.03;;;3.63;;
15818;SDS011;8010;53.986;12.106;2023-11-21T02:32:52;5.17;;;3.70;;
15818;SDS011;8010;53.986;12.106;2023-11-21T02:35:19;6.13;;;4.07;;
15818;SDS011;8010;53.986;12.106;2023-11-21T02:37:46;6.97;;;4.10;;
15818;SDS011;8010;53.986;12.106;2023-11-21T02:40:12;6.57;;;3.93;;
15818;SDS011;8010;53.986;12.106;2023-11-21T02:42:39;4.87;;;3.43;;
15818;SDS011;8010;53.986;12.106;2023-11-21T02:45:06;5.30;;;4.03;;
15818;SDS011;8010;53.986;12.106;2023-11-21T02:47:32;6.13;;;4.40;;
15818;SDS011;8010;53.986;12.106;2023-11-21T02:49:58;4.90;;;3.57;;
15818;SDS011;8010;53.986;12.106;2023-11-21T02:52:24;5.77;;;3.87;;
15818;SDS011;8010;53.986;12.106;2023-11-21T02:54:50;7.30;;;4.10;;
15818;SDS011;8010;53.986;12.106;2023-11-21T02:57:16;4.80;;;3.73;;
15818;SDS011;8010;53.986;12.106;2023-11-21T02:59:41;4.93;;;3.90;;
15818;SDS011;8010;53.986;12.106;2023-11-21T03:02:07;5.67;;;3.67;;
15818;SDS011;8010;53.986;12.106;2023-11-21T03:04:35;5.63;;;4.00;;
15818;SDS011;8010;53.986;12.106;2023-11-21T03:07:01;4.63;;;3.37;;
15818;SDS011;8010;53.986;12.106;2023-11-21T03:09:26;7.10;;;4.07;;
15818;SDS011;8010;53.986;12.106;2023-11-21T03:11:53;6.23;;;3.63;;
15818;SDS011;8010;53.986;12.106;2023-11-21T03:14:19;4.10;;;3.20;;
15818;SDS011;8010;53.986;12.106;2023-11-21T03:16:45;5.17;;;3.37;;
15818;SDS011;8010;53.986;12.106;2023-11-21T03:19:11;3.90;;;3.20;;
15818;SDS011;8010;53.986;12.106;2023-11-21T03:21:36;4.30;;;3.37;;
15818;SDS011;8010;53.986;12.106;2023-11-21T03:24:02;4.50;;;3.50;;
15818;SDS011;8010;53.986;12.106;2023-11-21T03:26:28;9.63;;;3.50;;
15818;SDS011;8010;53.986;12.106;2023-11-21T03:28:54;3.77;;;2.93;;
15818;SDS011;8010;53.986;12.106;2023-11-21T03:31:20;5.10;;;3.30;;
15818;SDS011;8010;53.986;12.106;2023-11-21T03:33:46;6.03;;;3.30;;
15818;SDS011;8010;53.986;12.106;2023-11-21T03:36:12;5.77;;;3.63;;
15818;SDS011;8010;53.986;12.106;2023-11-21T03:38:39;4.57;;;3.47;;
15818;SDS011;8010;53.986;12.106;2023-11-21T03:41:05;4.23;;;3.27;;
15818;SDS011;8010;53.986;12.106;2023-11-21T03:43:31;5.83;;;3.73;;
15818;SDS011;8010;53.986;12.106;2023-11-21T03:45:56;8.13;;;3.53;;
15818;SDS011;8010;53.986;12.106;2023-11-21T03:48:22;4.63;;;3.40;;
15818;SDS011;8010;53.986;12.106;2023-11-21T03:50:48;5.07;;;3.50;;
15818;SDS011;8010;53.986;12.106;2023-11-21T03:53:13;5.67;;;3.50;;
15818;SDS011;8010;53.986;12.106;2023-11-21T03:55:39;4.10;;;2.80;;
15818;SDS011;8010;53.986;12.106;2023-11-21T03:58:04;4.87;;;3.20;;
15818;SDS011;8010;53.986;12.106;2023-11-21T04:00:30;4.93;;;3.23;;
15818;SDS011;8010;53.986;12.106;2023-11-21T04:02:56;4.90;;;3.37;;
15818;SDS011;8010;53.986;12.106;2023-11-21T04:05:21;4.20;;;3.43;;
15818;SDS011;8010;53.986;12.106;2023-11-21T04:07:49;4.63;;;2.93;;
15818;SDS011;8010;53.986;12.106;2023-11-21T04:10:15;4.83;;;2.87;;
15818;SDS011;8010;53.986;12.106;2023-11-21T04:12:41;4.43;;;3.17;;
15818;SDS011;8010;53.986;12.106;2023-11-21T04:15:07;4.60;;;2.80;;
15818;SDS011;8010;53.986;12.106;2023-11-21T04:17:34;8.70;;;3.60;;
15818;SDS011;8010;53.986;12.106;2023-11-21T04:20:00;6.97;;;3.33;;
15818;SDS011;8010;53.986;12.106;2023-11-21T04:22:25;6.60;;;3.27;;
15818;SDS011;8010;53.986;12.106;2023-11-21T04:24:51;3.80;;;3.07;;
15818;SDS011;8010;53.986;12.106;2023-11-21T04:27:16;5.00;;;3.63;;
15818;SDS011;8010;53.986;12.106;2023-11-21T04:29:45;4.23;;;3.10;;
15818;SDS011;8010;53.986;12.106;2023-11-21T04:32:10;5.70;;;3.50;;
15818;SDS011;8010;53.986;12.106;2023-11-21T04:34:37;4.17;;;3.07;;
15818;SDS011;8010;53.986;12.106;2023-11-21T04:37:03;5.40;;;3.20;;
15818;SDS011;8010;53.986;12.106;2023-11-21T04:39:31;3.10;;;2.47;;
15818;SDS011;8010;53.986;12.106;2023-11-21T04:41:56;5.80;;;3.10;;
15818;SDS011;8010;53.986;12.106;2023-11-21T04:44:22;3.97;;;2.57;;
15818;SDS011;8010;53.986;12.106;2023-11-21T04:46:47;4.07;;;2.60;;
15818;SDS011;8010;53.986;12.106;2023-11-21T04:49:13;4.23;;;3.10;;
15818;SDS011;8010;53.986;12.106;2023-11-21T04:51:39;4.03;;;2.87;;
15818;SDS011;8010;53.986;12.106;2023-11-21T04:54:04;4.77;;;3.23;;
15818;SDS011;8010;53.986;12.106;2023-11-21T04:56:30;4.20;;;2.83;;
15818;SDS011;8010;53.986;12.106;2023-11-21T04:58:56;3.53;;;2.63;;
15818;SDS011;8010;53.986;12.106;2023-11-21T05:01:22;4.10;;;2.60;;
15818;SDS011;8010;53.986;12.106;2023-11-21T05:03:47;7.03;;;3.13;;
15818;SDS011;8010;53.986;12.106;2023-11-21T05:06:14;4.00;;;3.00;;
15818;SDS011;8010;53.986;12.106;2023-11-21T05:08:39;4.77;;;2.60;;
15818;SDS011;8010;53.986;12.106;2023-11-21T05:11:05;5.03;;;3.10;;
15818;SDS011;8010;53.986;12.106;2023-11-21T05:13:35;6.20;;;2.30;;
15818;SDS011;8010;53.986;12.106;2023-11-21T05:16:01;2.87;;;2.47;;
15818;SDS011;8010;53.986;12.106;2023-11-21T05:18:29;3.60;;;2.70;;
15818;SDS011;8010;53.986;12.106;2023-11-21T05:20:55;3.50;;;2.57;;
15818;SDS011;8010;53.986;12.106;2023-11-21T05:23:20;3.73;;;2.50;;
15818;SDS011;8010;53.986;12.106;2023-11-21T05:25:46;3.67;;;2.70;;
15818;SDS011;8010;53.986;12.106;2023-11-21T05:28:12;5.57;;;2.57;;
15818;SDS011;8010;53.986;12.106;2023-11-21T05:30:38;5.50;;;2.97;;
15818;SDS011;8010;53.986;12.106;2023-11-21T05:33:04;4.43;;;2.63;;
15818;SDS011;8010;53.986;12.106;2023-11-21T05:35:30;5.27;;;2.60;;
15818;SDS011;8010;53.986;12.106;2023-11-21T05:37:55;5.40;;;2.70;;
15818;SDS011;8010;53.986;12.106;2023-11-21T05:40:21;3.43;;;2.63;;
15818;SDS011;8010;53.986;12.106;2023-11-21T05:42:47;3.73;;;2.90;;
15818;SDS011;8010;53.986;12.106;2023-11-21T05:45:13;4.00;;;2.53;;
15818;SDS011;8010;53.986;12.106;2023-11-21T05:47:40;3.67;;;2.90;;
15818;SDS011;8010;53.986;12.106;2023-11-21T05:50:07;5.50;;;2.80;;
15818;SDS011;8010;53.986;12.106;2023-11-21T05:52:39;4.47;;;3.27;;
15818;SDS011;8010;53.986;12.106;2023-11-21T05:55:06;4.20;;;2.87;;
15818;SDS011;8010;53.986;12.106;2023-11-21T05:57:32;4.90;;;2.93;;
15818;SDS011;8010;53.986;12.106;2023-11-21T05:59:59;4.07;;;2.93;;
15818;SDS011;8010;53.986;12.106;2023-11-21T06:02:24;3.37;;;2.60;;
15818;SDS011;8010;53.986;12.106;2023-11-21T06:04:50;4.20;;;2.70;;
15818;SDS011;8010;53.986;12.106;2023-11-21T06:07:16;4.07;;;3.00;;
15818;SDS011;8010;53.986;12.106;2023-11-21T06:09:42;3.63;;;2.60;;
15818;SDS011;8010;53.986;12.106;2023-11-21T06:12:08;4.47;;;2.50;;
15818;SDS011;8010;53.986;12.106;2023-11-21T06:14:34;4.87;;;3.00;;
15818;SDS011;8010;53.986;12.106;2023-11-21T06:17:00;4.17;;;2.97;;
15818;SDS011;8010;53.986;12.106;2023-11-21T06:19:25;3.07;;;2.60;;
15818;SDS011;8010;53.986;12.106;2023-11-21T06:21:51;3.90;;;2.63;;
15818;SDS011;8010;53.986;12.106;2023-11-21T06:24:16;3.57;;;2.83;;
15818;SDS011;8010;53.986;12.106;2023-11-21T06:26:42;4.43;;;2.80;;
15818;SDS011;8010;53.986;12.106;2023-11-21T06:29:09;3.37;;;2.60;;
15818;SDS011;8010;53.986;12.106;2023-11-21T06:31:35;3.60;;;2.90;;
15818;SDS011;8010;53.986;12.106;2023-11-21T06:34:01;3.77;;;2.80;;
15818;SDS011;8010;53.986;12.106;2023-11-21T06:36:28;2.97;;;2.50;;
15818;SDS011;8010;53.986;12.106;2023-11-21T06:38:53;4.57;;;2.97;;
15818;SDS011;8010;53.986;12.106;2023-11-21T06:41:20;3.43;;;2.77;;
15818;SDS011;8010;53.986;12.106;2023-11-21T06:43:45;4.47;;;2.83;;
15818;SDS011;8010;53.986;12.106;2023-11-21T06:46:11;4.53;;;2.53;;
15818;SDS011;8010;53.986;12.106;2023-11-21T06:48:39;5.00;;;2.93;;
15818;SDS011;8010;53.986;12.106;2023-11-21T06:51:07;4.67;;;2.83;;
15818;SDS011;8010;53.986;12.106;2023-11-21T06:53:33;3.47;;;2.57;;
15818;SDS011;8010;53.986;12.106;2023-11-21T06:55:59;2.87;;;2.57;;
15818;SDS011;8010;53.986;12.106;2023-11-21T06:58:24;3.57;;;2.60;;
15818;SDS011;8010;53.986;12.106;2023-11-21T07:00:50;3.03;;;2.43;;
15818;SDS011;8010;53.986;12.106;2023-11-21T07:03:16;5.27;;;2.53;;
15818;SDS011;8010;53.986;12.106;2023-11-21T07:05:44;3.60;;;2.87;;
15818;SDS011;8010;53.986;12.106;2023-11-21T07:08:09;3.60;;;2.70;;
15818;SDS011;8010;53.986;12.106;2023-11-21T07:10:35;4.43;;;2.80;;
15818;SDS011;8010;53.986;12.106;2023-11-21T07:13:01;3.83;;;2.90;;
15818;SDS011;8010;53.986;12.106;2023-11-21T07:15:27;2.50;;;2.13;;
15818;SDS011;8010;53.986;12.106;2023-11-21T07:17:53;6.87;;;2.97;;
15818;SDS011;8010;53.986;12.106;2023-11-21T07:20:19;5.00;;;2.83;;
15818;SDS011;8010;53.986;12.106;2023-11-21T07:22:44;3.63;;;2.67;;
15818;SDS011;8010;53.986;12.106;2023-11-21T07:25:10;3.60;;;2.60;;
15818;SDS011;8010;53.986;12.106;2023-11-21T07:27:36;4.37;;;3.10;;
15818;SDS011;8010;53.986;12.106;2023-11-21T07:30:02;4.90;;;2.87;;
15818;SDS011;8010;53.986;12.106;2023-11-21T07:32:30;3.50;;;2.87;;
15818;SDS011;8010;53.986;12.106;2023-11-21T07:34:56;3.90;;;2.90;;
15818;SDS011;8010;53.986;12.106;2023-11-21T07:37:24;3.50;;;2.60;;
15818;SDS011;8010;53.986;12.106;2023-11-21T07:39:51;4.43;;;2.80;;
15818;SDS011;8010;53.986;12.106;2023-11-21T07:42:21;3.53;;;2.77;;
15818;SDS011;8010;53.986;12.106;2023-11-21T07:44:48;3.17;;;2.83;;
15818;SDS011;8010;53.986;12.106;2023-11-21T07:47:15;4.20;;;3.23;;
15818;SDS011;8010;53.986;12.106;2023-11-21T07:49:40;4.33;;;3.40;;
15818;SDS011;8010;53.986;12.106;2023-11-21T07:52:08;7.23;;;2.87;;
15818;SDS011;8010;53.986;12.106;2023-11-21T07:54:34;7.00;;;3.30;;
15818;SDS011;8010;53.986;12.106;2023-11-21T07:57:01;4.57;;;2.93;;
15818;SDS011;8010;53.986;12.106;2023-11-21T07:59:27;4.33;;;2.97;;
15818;SDS011;8010;53.986;12.106;2023-11-21T08:01:53;4.17;;;3.13;;
15818;SDS011;8010;53.986;12.106;2023-11-21T08:04:19;5.03;;;3.40;;
15818;SDS011;8010;53.986;12.106;2023-11-21T08:06:44;4.63;;;3.20;;
15818;SDS011;8010;53.986;12.106;2023-11-21T08:09:10;3.93;;;2.73;;
15818;SDS011;8010;53.986;12.106;2023-11-21T08:11:37;6.90;;;3.20;;
15818;SDS011;8010;53.986;12.106;2023-11-21T08:14:03;5.30;;;3.07;;
15818;SDS011;8010;53.986;12.106;2023-11-21T08:16:29;5.43;;;3.43;;
15818;SDS011;8010;53.986;12.106;2023-11-21T08:18:55;6.40;;;3.87;;
15818;SDS011;8010;53.986;12.106;2023-11-21T08:21:21;5.63;;;3.23;;
15818;SDS011;8010;53.986;12.106;2023-11-21T08:23:49;5.67;;;3.20;;
15818;SDS011;8010;53.986;12.106;2023-11-21T08:26:19;4.00;;;3.30;;
15818;SDS011;8010;53.986;12.106;2023-11-21T08:28:45;5.13;;;3.43;;
15818;SDS011;8010;53.986;12.106;2023-11-21T08:31:12;4.40;;;2.80;;
15818;SDS011;8010;53.986;12.106;2023-11-21T08:33:37;5.50;;;2.87;;
15818;SDS011;8010;53.986;12.106;2023-11-21T08:36:06;4.53;;;3.07;;
15818;SDS011;8010;53.986;12.106;2023-11-21T08:38:33;4.87;;;3.17;;
15818;SDS011;8010;53.986;12.106;2023-11-21T08:41:02;3.60;;;2.90;;
15818;SDS011;8010;53.986;12.106;2023-11-21T08:43:37;5.07;;;2.90;;
15818;SDS011;8010;53.986;12.106;2023-11-21T08:46:04;6.07;;;3.23;;
15818;SDS011;8010;53.986;12.106;2023-11-21T08:48:36;4.33;;;3.00;;
15818;SDS011;8010;53.986;12.106;2023-11-21T08:51:02;4.13;;;3.43;;
15818;SDS011;8010;53.986;12.106;2023-11-21T08:53:29;4.43;;;3.03;;
15818;SDS011;8010;53.986;12.106;2023-11-21T08:55:56;3.50;;;3.03;;
15818;SDS011;8010;53.986;12.106;2023-11-21T08:58:21;4.33;;;3.10;;
15818;SDS011;8010;53.986;12.106;2023-11-21T09:00:47;4.83;;;3.17;;
15818;SDS011;8010;53.986;12.106;2023-11-21T09:03:12;6.27;;;3.50;;
15818;SDS011;8010;53.986;12.106;2023-11-21T09:05:38;4.97;;;3.30;;
15818;SDS011;8010;53.986;12.106;2023-11-21T09:08:04;4.30;;;2.83;;
15818;SDS011;8010;53.986;12.106;2023-11-21T09:10:30;4.70;;;2.87;;
15818;SDS011;8010;53.986;12.106;2023-11-21T09:12:56;3.67;;;2.83;;
15818;SDS011;8010;53.986;12.106;2023-11-21T09:15:21;3.03;;;2.33;;
15818;SDS011;8010;53.986;12.106;2023-11-21T09:17:47;4.00;;;2.97;;
15818;SDS011;8010;53.986;12.106;2023-11-21T09:20:13;3.30;;;2.87;;
15818;SDS011;8010;53.986;12.106;2023-11-21T09:22:40;4.60;;;2.80;;
15818;SDS011;8010;53.986;12.106;2023-11-21T09:25:05;5.50;;;2.77;;
15818;SDS011;8010;53.986;12.106;2023-11-21T09:27:33;5.20;;;2.97;;
15818;SDS011;8010;53.986;12.106;2023-11-21T09:30:00;8.30;;;2.83;;
15818;SDS011;8010;53.986;12.106;2023-11-21T09:32:26;3.40;;;2.63;;
15818;SDS011;8010;53.986;12.106;2023-11-21T09:34:52;4.10;;;2.77;;
15818;SDS011;8010;53.986;12.106;2023-11-21T09:37:20;5.37;;;2.43;;
15818;SDS011;8010;53.986;12.106;2023-11-21T09:39:46;3.90;;;2.40;;
15818;SDS011;8010;53.986;12.106;2023-11-21T09:42:14;5.33;;;2.80;;
15818;SDS011;8010;53.986;12.106;2023-11-21T09:44:48;3.30;;;2.13;;
15818;SDS011;8010;53.986;12.106;2023-11-21T09:47:22;3.33;;;2.30;;
15818;SDS011;8010;53.986;12.106;2023-11-21T09:49:48;4.20;;;2.60;;
15818;SDS011;8010;53.986;12.106;2023-11-21T09:52:25;3.17;;;2.10;;
15818;SDS011;8010;53.986;12.106;2023-11-21T09:54:52;5.73;;;2.80;;
15818;SDS011;8010;53.986;12.106;2023-11-21T09:57:19;4.60;;;2.43;;
15818;SDS011;8010;53.986;12.106;2023-11-21T09:59:47;4.00;;;2.63;;
15818;SDS011;8010;53.986;12.106;2023-11-21T10:02:16;3.50;;;2.10;;
15818;SDS011;8010;53.986;12.106;2023-11-21T10:04:44;2.83;;;2.10;;
15818;SDS011;8010;53.986;12.106;2023-11-21T10:07:10;4.30;;;1.90;;
15818;SDS011;8010;53.986;12.106;2023-11-21T10:09:40;2.57;;;2.00;;
15818;SDS011;8010;53.986;12.106;2023-11-21T10:12:06;2.33;;;1.70;;
15818;SDS011;8010;53.986;12.106;2023-11-21T10:14:33;2.50;;;1.80;;
15818;SDS011;8010;53.986;12.106;2023-11-21T10:17:02;3.80;;;1.80;;
15818;SDS011;8010;53.986;12.106;2023-11-21T10:19:28;3.83;;;1.90;;
15818;SDS011;8010;53.986;12.106;2023-11-21T10:21:55;2.53;;;1.87;;
15818;SDS011;8010;53.986;12.106;2023-11-21T10:24:22;2.63;;;1.83;;
15818;SDS011;8010;53.986;12.106;2023-11-21T10:26:48;2.97;;;1.70;;
15818;SDS011;8010;53.986;12.106;2023-11-21T10:29:15;3.17;;;2.23;;
15818;SDS011;8010;53.986;12.106;2023-11-21T10:31:48;3.13;;;2.00;;
15818;SDS011;8010;53.986;12.106;2023-11-21T10:34:16;3.07;;;2.00;;
15818;SDS011;8010;53.986;12.106;2023-11-21T10:36:43;4.30;;;2.10;;
15818;SDS011;8010;53.986;12.106;2023-11-21T10:39:09;3.63;;;1.90;;
15818;SDS011;8010;53.986;12.106;2023-11-21T10:41:45;3.43;;;2.03;;
15818;SDS011;8010;53.986;12.106;2023-11-21T10:44:15;4.77;;;2.00;;
15818;SDS011;8010;53.986;12.106;2023-11-21T10:46:49;3.93;;;1.87;;
15818;SDS011;8010;53.986;12.106;2023-11-21T10:49:19;2.33;;;1.80;;
15818;SDS011;8010;53.986;12.106;2023-11-21T10:51:45;4.17;;;1.90;;
15818;SDS011;8010;53.986;12.106;2023-11-21T10:54:16;2.67;;;1.70;;
15818;SDS011;8010;53.986;12.106;2023-11-21T10:56:43;3.40;;;1.60;;
15818;SDS011;8010;53.986;12.106;2023-11-21T10:59:10;2.43;;;2.07;;
15818;SDS011;8010;53.986;12.106;2023-11-21T11:01:42;3.07;;;1.80;;
15818;SDS011;8010;53.986;12.106;2023-11-21T11:04:09;2.83;;;1.67;;
15818;SDS011;8010;53.986;12.106;2023-11-21T11:06:41;2.37;;;1.90;;
15818;SDS011;8010;53.986;12.106;2023-11-21T11:09:08;2.63;;;1.97;;
15818;SDS011;8010;53.986;12.106;2023-11-21T11:11:38;5.93;;;2.00;;
15818;SDS011;8010;53.986;12.106;2023-11-21T11:14:10;5.17;;;1.90;;
15818;SDS011;8010;53.986;12.106;2023-11-21T11:16:37;4.13;;;2.10;;
15818;SDS011;8010;53.986;12.106;2023-11-21T11:19:06;3.70;;;1.73;;
15818;SDS011;8010;53.986;12.106;2023-11-21T11:27:30;3.00;;;1.50;;
15818;SDS011;8010;53.986;12.106;2023-11-21T11:30:15;3.50;;;1.83;;
15818;SDS011;8010;53.986;12.106;2023-11-21T11:38:12;2.67;;;1.50;;
15818;SDS011;8010;53.986;12.106;2023-11-21T11:40:39;1.73;;;1.33;;
15818;SDS011;8010;53.986;12.106;2023-11-21T11:43:05;3.73;;;1.60;;
15818;SDS011;8010;53.986;12.106;2023-11-21T11:45:32;3.70;;;1.97;;
15818;SDS011;8010;53.986;12.106;2023-11-21T11:47:59;2.13;;;1.40;;
15818;SDS011;8010;53.986;12.106;2023-11-21T11:50:26;1.70;;;1.30;;
15818;SDS011;8010;53.986;12.106;2023-11-21T11:52:57;3.33;;;1.33;;
15818;SDS011;8010;53.986;12.106;2023-11-21T11:55:40;1.60;;;1.27;;
15818;SDS011;8010;53.986;12.106;2023-11-21T11:58:06;2.80;;;1.37;;
15818;SDS011;8010;53.986;12.106;2023-11-21T12:00:33;2.43;;;1.43;;
15818;SDS011;8010;53.986;12.106;2023-11-21T12:03:02;3.33;;;1.13;;
15818;SDS011;8010;53.986;12.106;2023-11-21T12:05:29;2.87;;;1.70;;
15818;SDS011;8010;53.986;12.106;2023-11-21T12:07:58;2.57;;;1.27;;
15818;SDS011;8010;53.986;12.106;2023-11-21T12:10:26;2.67;;;1.40;;
15818;SDS011;8010;53.986;12.106;2023-11-21T12:12:56;2.73;;;1.33;;
15818;SDS011;8010;53.986;12.106;2023-11-21T12:15:23;3.33;;;1.37;;
15818;SDS011;8010;53.986;12.106;2023-11-21T12:17:50;7.23;;;1.40;;
15818;SDS011;8010;53.986;12.106;2023-11-21T12:20:20;2.33;;;1.40;;
15818;SDS011;8010;53.986;12.106;2023-11-21T12:22:48;2.73;;;1.40;;
15818;SDS011;8010;53.986;12.106;2023-11-21T12:25:24;5.90;;;1.20;;
15818;SDS011;8010;53.986;12.106;2023-11-21T12:27:54;1.67;;;1.30;;
15818;SDS011;8010;53.986;12.106;2023-11-21T12:30:21;1.47;;;1.13;;
15818;SDS011;8010;53.986;12.106;2023-11-21T12:32:51;2.77;;;1.40;;
15818;SDS011;8010;53.986;12.106;2023-11-21T12:35:18;1.50;;;1.20;;
15818;SDS011;8010;53.986;12.106;2023-11-21T12:37:45;2.30;;;1.40;;
15818;SDS011;8010;53.986;12.106;2023-11-21T12:40:11;2.27;;;1.40;;
15818;SDS011;8010;53.986;12.106;2023-11-21T12:42:40;1.50;;;1.20;;
15818;SDS011;8010;53.986;12.106;2023-11-21T12:45:15;3.77;;;1.87;;
15818;SDS011;8010;53.986;12.106;2023-11-21T12:47:48;2.30;;;1.63;;
15818;SDS011;8010;53.986;12.106;2023-11-21T12:50:20;1.80;;;1.30;;
15818;SDS011;8010;53.986;12.106;2023-11-21T12:52:48;2.00;;;1.33;;
15818;SDS011;8010;53.986;12.106;2023-11-21T12:55:19;3.37;;;1.50;;
15818;SDS011;8010;53.986;12.106;2023-11-21T12:57:53;1.70;;;1.50;;
15818;SDS011;8010;53.986;12.106;2023-11-21T13:00:20;2.33;;;1.40;;
15818;SDS011;8010;53.986;12.106;2023-11-21T13:03:02;3.27;;;1.50;;
15818;SDS011;8010;53.986;12.106;2023-11-21T13:05:29;1.93;;;1.37;;
15818;SDS011;8010;53.986;12.106;2023-11-21T13:07:58;1.80;;;1.20;;
15818;SDS011;8010;53.986;12.106;2023-11-21T13:10:27;1.50;;;1.20;;
15818;SDS011;8010;53.986;12.106;2023-11-21T13:12:58;1.30;;;0.97;;
15818;SDS011;8010;53.986;12.106;2023-11-21T13:15:26;3.57;;;1.03;;
15818;SDS011;8010;53.986;12.106;2023-11-21T13:17:52;1.40;;;0.90;;
15818;SDS011;8010;53.986;12.106;2023-11-21T13:20:18;1.53;;;1.13;;
15818;SDS011;8010;53.986;12.106;2023-11-21T13:22:55;2.60;;;1.20;;
15818;SDS011;8010;53.986;12.106;2023-11-21T13:25:26;3.30;;;1.10;;
15818;SDS011;8010;53.986;12.106;2023-11-21T13:27:55;1.80;;;1.23;;
15818;SDS011;8010;53.986;12.106;2023-11-21T13:30:21;2.30;;;1.13;;
15818;SDS011;8010;53.986;12.106;2023-11-21T13:33:08;3.03;;;1.50;;
15818;SDS011;8010;53.986;12.106;2023-11-21T13:35:35;2.67;;;1.07;;
15818;SDS011;8010;53.986;12.106;2023-11-21T13:38:13;2.33;;;1.10;;
15818;SDS011;8010;53.986;12.106;2023-11-21T13:40:41;3.10;;;1.60;;
15818;SDS011;8010;53.986;12.106;2023-11-21T13:43:15;2.07;;;1.40;;
15818;SDS011;8010;53.986;12.106;2023-11-21T13:45:43;2.07;;;1.40;;
15818;SDS011;8010;53.986;12.106;2023-11-21T13:48:11;3.47;;;1.50;;
15818;SDS011;8010;53.986;12.106;2023-11-21T13:50:41;1.40;;;1.07;;
15818;SDS011;8010;53.986;12.106;2023-11-21T13:53:21;6.17;;;1.30;;
15818;SDS011;8010;53.986;12.106;2023-11-21T13:55:56;1.83;;;1.40;;
15818;SDS011;8010;53.986;12.106;2023-11-21T13:58:24;3.83;;;1.50;;
15818;SDS011;8010;53.986;12.106;2023-11-21T14:01:09;1.60;;;1.40;;
15818;SDS011;8010;53.986;12.106;2023-11-21T14:03:41;2.30;;;1.30;;
15818;SDS011;8010;53.986;12.106;2023-11-21T14:06:16;3.93;;;1.70;;
15818;SDS011;8010;53.986;12.106;2023-11-21T14:08:49;2.73;;;1.70;;
15818;SDS011;8010;53.986;12.106;2023-11-21T14:11:15;2.10;;;1.40;;
15818;SDS011;8010;53.986;12.106;2023-11-21T14:13:43;1.93;;;1.40;;
15818;SDS011;8010;53.986;12.106;2023-11-21T14:16:12;2.87;;;1.50;;
15818;SDS011;8010;53.986;12.106;2023-11-21T14:18:39;2.87;;;1.27;;
15818;SDS011;8010;53.986;12.106;2023-11-21T14:21:17;2.57;;;1.40;;
15818;SDS011;8010;53.986;12.106;2023-11-21T14:23:43;2.17;;;1.30;;
15818;SDS011;8010;53.986;12.106;2023-11-21T14:26:10;2.70;;;1.10;;
15818;SDS011;8010;53.986;12.106;2023-11-21T14:28:39;3.87;;;1.63;;
15818;SDS011;8010;53.986;12.106;2023-11-21T14:31:08;2.63;;;1.43;;
15818;SDS011;8010;53.986;12.106;2023-11-21T14:33:38;1.10;;;0.87;;
15818;SDS011;8010;53.986;12.106;2023-11-21T14:36:05;2.10;;;1.30;;
15818;SDS011;8010;53.986;12.106;2023-11-21T14:38:33;1.83;;;1.40;;
15818;SDS011;8010;53.986;12.106;2023-11-21T14:40:58;2.70;;;1.40;;
15818;SDS011;8010;53.986;12.106;2023-11-21T14:43:24;2.40;;;1.40;;
15818;SDS011;8010;53.986;12.106;2023-11-21T14:45:51;1.60;;;1.13;;
15818;SDS011;8010;53.986;12.106;2023-11-21T14:48:16;5.73;;;1.73;;
15818;SDS011;8010;53.986;12.106;2023-11-21T14:50:51;2.67;;;1.43;;
15818;SDS011;8010;53.986;12.106;2023-11-21T14:53:28;3.37;;;1.30;;
15818;SDS011;8010;53.986;12.106;2023-11-21T14:56:19;2.27;;;1.60;;
15818;SDS011;8010;53.986;12.106;2023-11-21T14:58:58;4.03;;;1.77;;
15818;SDS011;8010;53.986;12.106;2023-11-21T15:01:31;3.40;;;1.57;;